Terminal Aerodrome Forecast
Issued by NWS

Home | Current Version | Previous Version | Text Only | Print | Product List | Glossary On
Versions: 1 2 3 4 5 6 7 8 9 10 11 12 13 14 15 16 17
820
FTUS44 KLIX 222323
TAFMCB
TAF
KMCB 222323Z 2300/2324 28015KT P6SM BKN060
     FM230200 30015KT P6SM BKN030
     FM230400 30015KT P6SM OVC015
     FM231200 32012KT P6SM BKN025
     FM231400 32012KT P6SM BKN035
     FM231500 32012KT P6SM SCT035=

USA.gov is the U.S. government's official web portal to all federal, state and local government web resources and services.